sensor_id;sensor_type;location;lat;lon;timestamp;P1;durP1;ratioP1;P2;durP2;ratioP2
68108;SDS011;54893;49.864;19.084;2022-11-15T00:04:31;179.20;;;43.73;;
68108;SDS011;54893;49.864;19.084;2022-11-15T00:09:32;242.68;;;43.45;;
68108;SDS011;54893;49.864;19.084;2022-11-15T00:14:32;191.57;;;47.60;;
68108;SDS011;54893;49.864;19.084;2022-11-15T00:19:32;246.27;;;39.10;;
68108;SDS011;54893;49.864;19.084;2022-11-15T00:24:33;203.07;;;35.80;;
68108;SDS011;54893;49.864;19.084;2022-11-15T00:29:33;224.15;;;36.15;;
68108;SDS011;54893;49.864;19.084;2022-11-15T00:34:34;201.90;;;33.17;;
68108;SDS011;54893;49.864;19.084;2022-11-15T00:39:34;265.02;;;37.20;;
68108;SDS011;54893;49.864;19.084;2022-11-15T00:44:34;282.00;;;36.73;;
68108;SDS011;54893;49.864;19.084;2022-11-15T00:49:35;301.58;;;40.20;;
68108;SDS011;54893;49.864;19.084;2022-11-15T00:54:35;311.48;;;39.75;;
68108;SDS011;54893;49.864;19.084;2022-11-15T00:59:35;289.53;;;39.93;;
68108;SDS011;54893;49.864;19.084;2022-11-15T01:04:36;237.67;;;40.73;;
68108;SDS011;54893;49.864;19.084;2022-11-15T01:09:36;204.50;;;33.70;;
68108;SDS011;54893;49.864;19.084;2022-11-15T01:14:36;329.07;;;42.57;;
68108;SDS011;54893;49.864;19.084;2022-11-15T01:19:37;345.63;;;39.40;;
68108;SDS011;54893;49.864;19.084;2022-11-15T01:24:37;177.02;;;31.85;;
68108;SDS011;54893;49.864;19.084;2022-11-15T01:29:37;240.90;;;36.40;;
68108;SDS011;54893;49.864;19.084;2022-11-15T01:34:38;245.13;;;33.93;;
68108;SDS011;54893;49.864;19.084;2022-11-15T01:39:38;252.43;;;36.03;;
68108;SDS011;54893;49.864;19.084;2022-11-15T01:49:55;234.17;;;32.53;;
68108;SDS011;54893;49.864;19.084;2022-11-15T01:55:00;279.95;;;35.03;;
68108;SDS011;54893;49.864;19.084;2022-11-15T02:00:06;214.40;;;33.23;;
68108;SDS011;54893;49.864;19.084;2022-11-15T02:05:07;226.20;;;35.55;;
68108;SDS011;54893;49.864;19.084;2022-11-15T02:10:09;178.93;;;32.33;;
68108;SDS011;54893;49.864;19.084;2022-11-15T02:15:11;167.88;;;33.78;;
68108;SDS011;54893;49.864;19.084;2022-11-15T02:20:34;183.83;;;33.30;;
68108;SDS011;54893;49.864;19.084;2022-11-15T02:25:55;123.15;;;32.67;;
68108;SDS011;54893;49.864;19.084;2022-11-15T02:31:55;115.80;;;33.08;;
68108;SDS011;54893;49.864;19.084;2022-11-15T02:37:28;117.45;;;35.38;;
68108;SDS011;54893;49.864;19.084;2022-11-15T02:42:39;106.32;;;36.47;;
68108;SDS011;54893;49.864;19.084;2022-11-15T02:48:03;107.43;;;37.50;;
68108;SDS011;54893;49.864;19.084;2022-11-15T02:53:07;102.18;;;38.35;;
68108;SDS011;54893;49.864;19.084;2022-11-15T03:18:52;114.32;;;40.67;;
68108;SDS011;54893;49.864;19.084;2022-11-15T03:24:07;110.93;;;40.05;;
68108;SDS011;54893;49.864;19.084;2022-11-15T03:29:13;113.07;;;42.13;;
68108;SDS011;54893;49.864;19.084;2022-11-15T03:34:31;119.05;;;47.33;;
68108;SDS011;54893;49.864;19.084;2022-11-15T03:39:35;111.57;;;44.33;;
68108;SDS011;54893;49.864;19.084;2022-11-15T03:49:44;145.32;;;55.92;;
68108;SDS011;54893;49.864;19.084;2022-11-15T03:54:54;111.53;;;44.08;;
68108;SDS011;54893;49.864;19.084;2022-11-15T03:59:55;119.53;;;44.37;;
68108;SDS011;54893;49.864;19.084;2022-11-15T04:04:56;125.40;;;50.47;;
68108;SDS011;54893;49.864;19.084;2022-11-15T04:09:56;122.47;;;46.80;;
68108;SDS011;54893;49.864;19.084;2022-11-15T04:15:09;117.28;;;43.88;;
68108;SDS011;54893;49.864;19.084;2022-11-15T04:20:14;106.03;;;41.63;;
68108;SDS011;54893;49.864;19.084;2022-11-15T04:25:35;107.38;;;40.58;;
68108;SDS011;54893;49.864;19.084;2022-11-15T04:30:37;110.22;;;42.50;;
68108;SDS011;54893;49.864;19.084;2022-11-15T04:35:37;109.88;;;43.15;;
68108;SDS011;54893;49.864;19.084;2022-11-15T04:40:38;108.83;;;40.83;;
68108;SDS011;54893;49.864;19.084;2022-11-15T04:45:38;109.37;;;42.53;;
68108;SDS011;54893;49.864;19.084;2022-11-15T04:50:39;113.60;;;43.00;;
68108;SDS011;54893;49.864;19.084;2022-11-15T04:55:39;119.13;;;45.90;;
68108;SDS011;54893;49.864;19.084;2022-11-15T05:00:39;112.30;;;41.77;;
68108;SDS011;54893;49.864;19.084;2022-11-15T05:05:40;142.50;;;56.93;;
68108;SDS011;54893;49.864;19.084;2022-11-15T05:10:40;141.13;;;55.87;;
68108;SDS011;54893;49.864;19.084;2022-11-15T05:15:41;120.30;;;47.97;;
68108;SDS011;54893;49.864;19.084;2022-11-15T05:20:41;136.67;;;56.43;;
68108;SDS011;54893;49.864;19.084;2022-11-15T05:25:41;141.70;;;59.37;;
68108;SDS011;54893;49.864;19.084;2022-11-15T05:30:42;155.60;;;60.40;;
68108;SDS011;54893;49.864;19.084;2022-11-15T05:35:44;151.63;;;57.20;;
68108;SDS011;54893;49.864;19.084;2022-11-15T05:40:48;131.48;;;50.47;;
68108;SDS011;54893;49.864;19.084;2022-11-15T05:45:49;126.27;;;44.10;;
68108;SDS011;54893;49.864;19.084;2022-11-15T05:50:50;117.40;;;43.47;;
68108;SDS011;54893;49.864;19.084;2022-11-15T05:55:51;130.15;;;48.00;;
68108;SDS011;54893;49.864;19.084;2022-11-15T06:00:51;127.70;;;45.00;;
68108;SDS011;54893;49.864;19.084;2022-11-15T06:05:52;123.10;;;45.90;;
68108;SDS011;54893;49.864;19.084;2022-11-15T06:10:52;136.37;;;53.13;;
68108;SDS011;54893;49.864;19.084;2022-11-15T06:15:55;160.23;;;59.63;;
68108;SDS011;54893;49.864;19.084;2022-11-15T06:20:58;144.27;;;52.03;;
68108;SDS011;54893;49.864;19.084;2022-11-15T06:26:01;163.63;;;56.80;;
68108;SDS011;54893;49.864;19.084;2022-11-15T06:31:03;154.90;;;58.53;;
68108;SDS011;54893;49.864;19.084;2022-11-15T06:36:08;201.90;;;74.13;;
68108;SDS011;54893;49.864;19.084;2022-11-15T06:41:13;194.85;;;71.05;;
68108;SDS011;54893;49.864;19.084;2022-11-15T06:46:14;163.27;;;62.07;;
68108;SDS011;54893;49.864;19.084;2022-11-15T06:51:15;152.83;;;60.50;;
68108;SDS011;54893;49.864;19.084;2022-11-15T06:56:15;157.20;;;56.07;;
68108;SDS011;54893;49.864;19.084;2022-11-15T07:01:15;146.53;;;55.53;;
68108;SDS011;54893;49.864;19.084;2022-11-15T07:06:15;132.70;;;53.27;;
68108;SDS011;54893;49.864;19.084;2022-11-15T07:11:16;148.80;;;59.20;;
68108;SDS011;54893;49.864;19.084;2022-11-15T07:16:16;128.63;;;52.80;;
68108;SDS011;54893;49.864;19.084;2022-11-15T07:21:16;129.90;;;52.43;;
68108;SDS011;54893;49.864;19.084;2022-11-15T07:26:17;114.57;;;45.63;;
68108;SDS011;54893;49.864;19.084;2022-11-15T07:31:17;125.18;;;46.42;;
68108;SDS011;54893;49.864;19.084;2022-11-15T07:36:17;119.23;;;48.43;;
68108;SDS011;54893;49.864;19.084;2022-11-15T07:41:18;115.70;;;43.80;;
68108;SDS011;54893;49.864;19.084;2022-11-15T07:46:18;119.40;;;45.03;;
68108;SDS011;54893;49.864;19.084;2022-11-15T07:51:19;113.93;;;45.80;;
68108;SDS011;54893;49.864;19.084;2022-11-15T07:56:19;115.82;;;45.80;;
68108;SDS011;54893;49.864;19.084;2022-11-15T08:01:20;112.73;;;46.93;;
68108;SDS011;54893;49.864;19.084;2022-11-15T08:06:21;119.23;;;51.53;;
68108;SDS011;54893;49.864;19.084;2022-11-15T08:11:21;142.30;;;61.57;;
68108;SDS011;54893;49.864;19.084;2022-11-15T08:16:21;118.83;;;52.87;;
68108;SDS011;54893;49.864;19.084;2022-11-15T08:21:22;112.67;;;48.30;;
68108;SDS011;54893;49.864;19.084;2022-11-15T08:26:22;94.75;;;41.83;;
68108;SDS011;54893;49.864;19.084;2022-11-15T08:31:24;73.60;;;31.25;;
68108;SDS011;54893;49.864;19.084;2022-11-15T08:36:25;54.47;;;24.63;;
68108;SDS011;54893;49.864;19.084;2022-11-15T08:41:26;51.67;;;23.25;;
68108;SDS011;54893;49.864;19.084;2022-11-15T08:46:31;54.72;;;24.80;;
68108;SDS011;54893;49.864;19.084;2022-11-15T08:51:31;56.42;;;24.98;;
68108;SDS011;54893;49.864;19.084;2022-11-15T08:56:31;63.80;;;28.40;;
68108;SDS011;54893;49.864;19.084;2022-11-15T09:01:32;67.00;;;27.67;;
68108;SDS011;54893;49.864;19.084;2022-11-15T09:06:32;75.20;;;31.53;;
68108;SDS011;54893;49.864;19.084;2022-11-15T09:11:33;79.22;;;31.90;;
68108;SDS011;54893;49.864;19.084;2022-11-15T09:16:33;82.93;;;33.80;;
68108;SDS011;54893;49.864;19.084;2022-11-15T09:21:34;77.83;;;34.40;;
68108;SDS011;54893;49.864;19.084;2022-11-15T09:26:34;81.13;;;32.20;;
68108;SDS011;54893;49.864;19.084;2022-11-15T09:31:34;89.70;;;34.53;;
68108;SDS011;54893;49.864;19.084;2022-11-15T09:36:35;74.30;;;31.25;;
68108;SDS011;54893;49.864;19.084;2022-11-15T09:51:57;63.25;;;24.95;;
68108;SDS011;54893;49.864;19.084;2022-11-15T10:13:20;70.57;;;27.70;;
68108;SDS011;54893;49.864;19.084;2022-11-15T10:18:25;63.55;;;25.33;;
68108;SDS011;54893;49.864;19.084;2022-11-15T10:23:35;70.27;;;26.47;;
68108;SDS011;54893;49.864;19.084;2022-11-15T10:28:35;69.50;;;27.30;;
68108;SDS011;54893;49.864;19.084;2022-11-15T10:33:36;78.40;;;33.00;;
68108;SDS011;54893;49.864;19.084;2022-11-15T10:49:18;124.78;;;51.35;;
68108;SDS011;54893;49.864;19.084;2022-11-15T11:00:04;167.98;;;62.08;;
68108;SDS011;54893;49.864;19.084;2022-11-15T11:10:34;128.73;;;52.80;;
68108;SDS011;54893;49.864;19.084;2022-11-15T11:15:35;127.97;;;51.13;;
68108;SDS011;54893;49.864;19.084;2022-11-15T11:31:14;99.63;;;39.20;;
68108;SDS011;54893;49.864;19.084;2022-11-15T11:36:26;94.63;;;40.05;;
68108;SDS011;54893;49.864;19.084;2022-11-15T11:41:47;91.30;;;38.33;;
68108;SDS011;54893;49.864;19.084;2022-11-15T11:46:56;93.22;;;40.40;;
68108;SDS011;54893;49.864;19.084;2022-11-15T11:52:12;77.00;;;32.20;;
68108;SDS011;54893;49.864;19.084;2022-11-15T11:57:28;65.22;;;28.35;;
68108;SDS011;54893;49.864;19.084;2022-11-15T12:02:35;72.50;;;29.35;;
68108;SDS011;54893;49.864;19.084;2022-11-15T12:07:40;63.43;;;27.27;;
68108;SDS011;54893;49.864;19.084;2022-11-15T12:17:56;58.40;;;24.87;;
68108;SDS011;54893;49.864;19.084;2022-11-15T12:28:08;61.03;;;26.38;;
68108;SDS011;54893;49.864;19.084;2022-11-15T12:33:36;60.13;;;25.60;;
68108;SDS011;54893;49.864;19.084;2022-11-15T12:43:58;63.37;;;25.77;;
68108;SDS011;54893;49.864;19.084;2022-11-15T12:49:07;57.20;;;25.02;;
68108;SDS011;54893;49.864;19.084;2022-11-15T13:04:50;79.35;;;35.67;;
68108;SDS011;54893;49.864;19.084;2022-11-15T13:09:52;102.37;;;45.33;;
68108;SDS011;54893;49.864;19.084;2022-11-15T13:14:58;84.75;;;37.55;;
68108;SDS011;54893;49.864;19.084;2022-11-15T13:25:14;92.77;;;35.93;;
68108;SDS011;54893;49.864;19.084;2022-11-15T13:30:20;99.88;;;36.28;;
68108;SDS011;54893;49.864;19.084;2022-11-15T13:35:23;100.20;;;35.77;;
68108;SDS011;54893;49.864;19.084;2022-11-15T13:40:27;106.68;;;37.85;;
68108;SDS011;54893;49.864;19.084;2022-11-15T13:45:30;108.78;;;41.30;;
68108;SDS011;54893;49.864;19.084;2022-11-15T13:50:31;107.60;;;43.00;;
68108;SDS011;54893;49.864;19.084;2022-11-15T13:55:36;133.77;;;51.70;;
68108;SDS011;54893;49.864;19.084;2022-11-15T14:00:38;108.35;;;42.90;;
68108;SDS011;54893;49.864;19.084;2022-11-15T14:05:43;108.60;;;42.42;;
68108;SDS011;54893;49.864;19.084;2022-11-15T14:10:44;119.57;;;47.45;;
68108;SDS011;54893;49.864;19.084;2022-11-15T14:15:44;128.43;;;53.03;;
68108;SDS011;54893;49.864;19.084;2022-11-15T14:20:45;131.10;;;53.77;;
68108;SDS011;54893;49.864;19.084;2022-11-15T14:25:52;125.07;;;50.37;;
68108;SDS011;54893;49.864;19.084;2022-11-15T14:30:54;112.63;;;43.90;;
68108;SDS011;54893;49.864;19.084;2022-11-15T14:35:57;110.72;;;44.10;;
68108;SDS011;54893;49.864;19.084;2022-11-15T14:41:02;116.17;;;48.07;;
68108;SDS011;54893;49.864;19.084;2022-11-15T14:46:02;147.65;;;58.08;;
68108;SDS011;54893;49.864;19.084;2022-11-15T14:51:03;122.27;;;53.40;;
68108;SDS011;54893;49.864;19.084;2022-11-15T14:56:03;126.97;;;54.80;;
68108;SDS011;54893;49.864;19.084;2022-11-15T15:06:25;146.75;;;66.47;;
68108;SDS011;54893;49.864;19.084;2022-11-15T15:11:27;157.30;;;71.20;;
68108;SDS011;54893;49.864;19.084;2022-11-15T15:16:30;152.82;;;70.72;;
68108;SDS011;54893;49.864;19.084;2022-11-15T15:21:30;147.20;;;64.47;;
68108;SDS011;54893;49.864;19.084;2022-11-15T15:26:31;145.50;;;65.70;;
68108;SDS011;54893;49.864;19.084;2022-11-15T15:31:36;161.23;;;69.22;;
68108;SDS011;54893;49.864;19.084;2022-11-15T15:36:36;150.80;;;68.87;;
68108;SDS011;54893;49.864;19.084;2022-11-15T15:41:36;136.50;;;61.57;;
68108;SDS011;54893;49.864;19.084;2022-11-15T15:46:37;142.43;;;61.53;;
68108;SDS011;54893;49.864;19.084;2022-11-15T15:51:37;133.73;;;57.50;;
68108;SDS011;54893;49.864;19.084;2022-11-15T15:56:37;132.10;;;58.10;;
68108;SDS011;54893;49.864;19.084;2022-11-15T16:01:38;130.37;;;59.93;;
68108;SDS011;54893;49.864;19.084;2022-11-15T16:06:38;107.03;;;47.50;;
68108;SDS011;54893;49.864;19.084;2022-11-15T16:11:43;113.13;;;48.97;;
68108;SDS011;54893;49.864;19.084;2022-11-15T16:16:44;127.45;;;57.03;;
68108;SDS011;54893;49.864;19.084;2022-11-15T16:21:44;132.77;;;62.60;;
68108;SDS011;54893;49.864;19.084;2022-11-15T16:26:45;191.37;;;83.93;;
68108;SDS011;54893;49.864;19.084;2022-11-15T16:31:47;205.38;;;95.93;;
68108;SDS011;54893;49.864;19.084;2022-11-15T16:36:47;185.30;;;88.97;;
68108;SDS011;54893;49.864;19.084;2022-11-15T16:41:48;162.13;;;71.30;;
68108;SDS011;54893;49.864;19.084;2022-11-15T16:46:48;153.10;;;66.63;;
68108;SDS011;54893;49.864;19.084;2022-11-15T16:51:50;138.95;;;62.85;;
68108;SDS011;54893;49.864;19.084;2022-11-15T16:56:51;157.20;;;72.27;;
68108;SDS011;54893;49.864;19.084;2022-11-15T17:01:52;187.00;;;88.43;;
68108;SDS011;54893;49.864;19.084;2022-11-15T17:06:53;246.40;;;114.17;;
68108;SDS011;54893;49.864;19.084;2022-11-15T17:11:53;288.17;;;137.20;;
68108;SDS011;54893;49.864;19.084;2022-11-15T17:16:53;294.03;;;143.07;;
68108;SDS011;54893;49.864;19.084;2022-11-15T17:21:54;234.27;;;119.50;;
68108;SDS011;54893;49.864;19.084;2022-11-15T17:26:55;302.50;;;134.13;;
68108;SDS011;54893;49.864;19.084;2022-11-15T17:31:55;258.53;;;117.30;;
68108;SDS011;54893;49.864;19.084;2022-11-15T17:36:55;234.83;;;110.83;;
68108;SDS011;54893;49.864;19.084;2022-11-15T17:41:55;244.57;;;109.13;;
68108;SDS011;54893;49.864;19.084;2022-11-15T17:46:56;277.27;;;127.70;;
68108;SDS011;54893;49.864;19.084;2022-11-15T17:51:56;195.13;;;94.07;;
68108;SDS011;54893;49.864;19.084;2022-11-15T17:56:57;187.10;;;92.97;;
68108;SDS011;54893;49.864;19.084;2022-11-15T18:01:57;213.47;;;104.50;;
68108;SDS011;54893;49.864;19.084;2022-11-15T18:06:57;233.02;;;116.80;;
68108;SDS011;54893;49.864;19.084;2022-11-15T18:11:58;231.07;;;109.57;;
68108;SDS011;54893;49.864;19.084;2022-11-15T18:16:58;173.07;;;83.83;;
68108;SDS011;54893;49.864;19.084;2022-11-15T18:21:58;167.73;;;83.43;;
68108;SDS011;54893;49.864;19.084;2022-11-15T18:27:00;166.32;;;78.30;;
68108;SDS011;54893;49.864;19.084;2022-11-15T18:32:03;170.70;;;82.43;;
68108;SDS011;54893;49.864;19.084;2022-11-15T18:37:09;177.65;;;83.90;;
68108;SDS011;54893;49.864;19.084;2022-11-15T18:42:10;175.30;;;85.57;;
68108;SDS011;54893;49.864;19.084;2022-11-15T18:47:10;172.25;;;84.53;;
68108;SDS011;54893;49.864;19.084;2022-11-15T18:52:10;171.40;;;84.83;;
68108;SDS011;54893;49.864;19.084;2022-11-15T18:57:11;171.37;;;81.10;;
68108;SDS011;54893;49.864;19.084;2022-11-15T19:02:11;161.47;;;79.27;;
68108;SDS011;54893;49.864;19.084;2022-11-15T19:07:12;196.35;;;92.55;;
68108;SDS011;54893;49.864;19.084;2022-11-15T19:12:12;186.83;;;89.37;;
68108;SDS011;54893;49.864;19.084;2022-11-15T19:17:12;202.20;;;96.17;;
68108;SDS011;54893;49.864;19.084;2022-11-15T19:22:13;217.33;;;98.53;;
68108;SDS011;54893;49.864;19.084;2022-11-15T19:27:13;218.13;;;98.53;;
68108;SDS011;54893;49.864;19.084;2022-11-15T19:32:13;220.27;;;104.50;;
68108;SDS011;54893;49.864;19.084;2022-11-15T19:37:13;211.70;;;94.32;;
68108;SDS011;54893;49.864;19.084;2022-11-15T19:42:14;178.63;;;80.50;;
68108;SDS011;54893;49.864;19.084;2022-11-15T19:47:14;158.60;;;72.20;;
68108;SDS011;54893;49.864;19.084;2022-11-15T19:52:14;130.65;;;55.42;;
68108;SDS011;54893;49.864;19.084;2022-11-15T19:57:15;129.33;;;55.43;;
68108;SDS011;54893;49.864;19.084;2022-11-15T20:02:15;173.93;;;81.87;;
68108;SDS011;54893;49.864;19.084;2022-11-15T20:07:16;200.63;;;95.50;;
68108;SDS011;54893;49.864;19.084;2022-11-15T20:12:16;191.63;;;86.87;;
68108;SDS011;54893;49.864;19.084;2022-11-15T20:17:16;191.98;;;91.45;;
68108;SDS011;54893;49.864;19.084;2022-11-15T20:22:17;200.70;;;87.43;;
68108;SDS011;54893;49.864;19.084;2022-11-15T20:27:17;256.97;;;102.53;;
68108;SDS011;54893;49.864;19.084;2022-11-15T20:32:18;299.50;;;116.20;;
68108;SDS011;54893;49.864;19.084;2022-11-15T20:37:18;296.67;;;111.97;;
68108;SDS011;54893;49.864;19.084;2022-11-15T20:42:19;270.75;;;107.10;;
68108;SDS011;54893;49.864;19.084;2022-11-15T20:47:19;248.83;;;102.67;;
68108;SDS011;54893;49.864;19.084;2022-11-15T20:52:20;227.67;;;95.50;;
68108;SDS011;54893;49.864;19.084;2022-11-15T20:57:20;232.77;;;94.17;;
68108;SDS011;54893;49.864;19.084;2022-11-15T21:02:20;237.43;;;95.77;;
68108;SDS011;54893;49.864;19.084;2022-11-15T21:07:21;234.13;;;96.47;;
68108;SDS011;54893;49.864;19.084;2022-11-15T21:12:21;226.55;;;96.43;;
68108;SDS011;54893;49.864;19.084;2022-11-15T21:17:21;243.90;;;108.77;;
68108;SDS011;54893;49.864;19.084;2022-11-15T21:22:22;245.40;;;105.43;;
68108;SDS011;54893;49.864;19.084;2022-11-15T21:27:22;238.03;;;104.63;;
68108;SDS011;54893;49.864;19.084;2022-11-15T21:32:22;268.75;;;107.13;;
68108;SDS011;54893;49.864;19.084;2022-11-15T21:37:23;232.10;;;100.05;;
68108;SDS011;54893;49.864;19.084;2022-11-15T21:42:23;234.50;;;98.50;;
68108;SDS011;54893;49.864;19.084;2022-11-15T21:47:23;240.25;;;96.68;;
68108;SDS011;54893;49.864;19.084;2022-11-15T21:52:24;234.40;;;95.50;;
68108;SDS011;54893;49.864;19.084;2022-11-15T21:57:24;206.70;;;89.33;;
68108;SDS011;54893;49.864;19.084;2022-11-15T22:02:24;219.20;;;90.73;;
68108;SDS011;54893;49.864;19.084;2022-11-15T22:07:25;209.63;;;87.53;;
68108;SDS011;54893;49.864;19.084;2022-11-15T22:12:25;214.43;;;87.87;;
68108;SDS011;54893;49.864;19.084;2022-11-15T22:17:25;294.57;;;98.93;;
68108;SDS011;54893;49.864;19.084;2022-11-15T22:22:46;390.33;;;114.00;;
68108;SDS011;54893;49.864;19.084;2022-11-15T22:27:46;345.17;;;104.50;;
68108;SDS011;54893;49.864;19.084;2022-11-15T22:32:46;295.20;;;96.13;;
68108;SDS011;54893;49.864;19.084;2022-11-15T22:37:47;314.73;;;114.47;;
68108;SDS011;54893;49.864;19.084;2022-11-15T22:42:47;313.93;;;124.27;;
68108;SDS011;54893;49.864;19.084;2022-11-15T22:47:48;276.23;;;106.53;;
68108;SDS011;54893;49.864;19.084;2022-11-15T22:52:48;285.67;;;111.17;;
68108;SDS011;54893;49.864;19.084;2022-11-15T22:57:49;268.60;;;103.05;;
68108;SDS011;54893;49.864;19.084;2022-11-15T23:02:50;247.57;;;99.77;;
68108;SDS011;54893;49.864;19.084;2022-11-15T23:07:50;271.13;;;102.53;;
68108;SDS011;54893;49.864;19.084;2022-11-15T23:12:51;295.65;;;105.72;;
68108;SDS011;54893;49.864;19.084;2022-11-15T23:18:10;317.95;;;112.57;;
68108;SDS011;54893;49.864;19.084;2022-11-15T23:23:11;322.23;;;114.60;;
68108;SDS011;54893;49.864;19.084;2022-11-15T23:28:12;329.63;;;115.65;;
68108;SDS011;54893;49.864;19.084;2022-11-15T23:33:13;325.83;;;116.27;;
68108;SDS011;54893;49.864;19.084;2022-11-15T23:38:33;294.07;;;110.83;;
68108;SDS011;54893;49.864;19.084;2022-11-15T23:43:36;299.60;;;105.35;;
68108;SDS011;54893;49.864;19.084;2022-11-15T23:48:37;261.10;;;97.70;;
68108;SDS011;54893;49.864;19.084;2022-11-15T23:53:37;277.00;;;101.70;;
68108;SDS011;54893;49.864;19.084;2022-11-15T23:58:38;259.53;;;94.63;;
